sensor_id;sensor_type;location;lat;lon;timestamp;P1;durP1;ratioP1;P2;durP2;ratioP2
41572;SDS011;27286;47.870;19.006;2022-12-05T00:00:48;24.40;;;18.90;;
41572;SDS011;27286;47.870;19.006;2022-12-05T00:03:14;25.88;;;19.15;;
41572;SDS011;27286;47.870;19.006;2022-12-05T00:05:40;26.17;;;20.15;;
41572;SDS011;27286;47.870;19.006;2022-12-05T00:08:06;30.00;;;20.45;;
41572;SDS011;27286;47.870;19.006;2022-12-05T00:10:31;27.45;;;20.25;;
41572;SDS011;27286;47.870;19.006;2022-12-05T00:12:59;26.75;;;21.13;;
41572;SDS011;27286;47.870;19.006;2022-12-05T00:15:25;26.65;;;21.30;;
41572;SDS011;27286;47.870;19.006;2022-12-05T00:17:50;25.38;;;19.75;;
41572;SDS011;27286;47.870;19.006;2022-12-05T00:20:15;27.58;;;20.73;;
41572;SDS011;27286;47.870;19.006;2022-12-05T00:22:41;28.35;;;21.00;;
41572;SDS011;27286;47.870;19.006;2022-12-05T00:25:07;26.98;;;19.92;;
41572;SDS011;27286;47.870;19.006;2022-12-05T00:27:33;23.13;;;18.92;;
41572;SDS011;27286;47.870;19.006;2022-12-05T00:29:59;26.05;;;19.08;;
41572;SDS011;27286;47.870;19.006;2022-12-05T00:32:24;22.70;;;18.13;;
41572;SDS011;27286;47.870;19.006;2022-12-05T00:34:51;24.33;;;18.33;;
41572;SDS011;27286;47.870;19.006;2022-12-05T00:37:17;25.27;;;19.23;;
41572;SDS011;27286;47.870;19.006;2022-12-05T00:39:42;27.98;;;19.45;;
41572;SDS011;27286;47.870;19.006;2022-12-05T00:42:08;24.65;;;19.00;;
41572;SDS011;27286;47.870;19.006;2022-12-05T00:44:33;25.85;;;20.50;;
41572;SDS011;27286;47.870;19.006;2022-12-05T00:46:58;26.65;;;19.27;;
41572;SDS011;27286;47.870;19.006;2022-12-05T00:49:24;25.65;;;18.85;;
41572;SDS011;27286;47.870;19.006;2022-12-05T00:51:49;25.52;;;18.35;;
41572;SDS011;27286;47.870;19.006;2022-12-05T00:54:15;29.10;;;18.58;;
41572;SDS011;27286;47.870;19.006;2022-12-05T00:56:41;25.05;;;19.63;;
41572;SDS011;27286;47.870;19.006;2022-12-05T00:59:07;24.45;;;18.70;;
41572;SDS011;27286;47.870;19.006;2022-12-05T01:01:37;23.17;;;18.15;;
41572;SDS011;27286;47.870;19.006;2022-12-05T01:04:05;24.35;;;15.75;;
41572;SDS011;27286;47.870;19.006;2022-12-05T01:06:34;22.33;;;17.48;;
41572;SDS011;27286;47.870;19.006;2022-12-05T01:08:59;23.40;;;16.95;;
41572;SDS011;27286;47.870;19.006;2022-12-05T01:11:25;20.65;;;16.88;;
41572;SDS011;27286;47.870;19.006;2022-12-05T01:13:52;22.40;;;16.35;;
41572;SDS011;27286;47.870;19.006;2022-12-05T01:16:19;24.60;;;16.55;;
41572;SDS011;27286;47.870;19.006;2022-12-05T01:18:47;22.15;;;16.85;;
41572;SDS011;27286;47.870;19.006;2022-12-05T01:21:12;23.75;;;16.60;;
41572;SDS011;27286;47.870;19.006;2022-12-05T01:23:38;22.25;;;16.10;;
41572;SDS011;27286;47.870;19.006;2022-12-05T01:26:04;22.65;;;16.98;;
41572;SDS011;27286;47.870;19.006;2022-12-05T01:28:31;21.60;;;15.63;;
41572;SDS011;27286;47.870;19.006;2022-12-05T01:30:57;23.13;;;16.33;;
41572;SDS011;27286;47.870;19.006;2022-12-05T01:33:22;22.13;;;16.85;;
41572;SDS011;27286;47.870;19.006;2022-12-05T01:35:47;24.48;;;16.75;;
41572;SDS011;27286;47.870;19.006;2022-12-05T01:38:13;23.58;;;16.88;;
41572;SDS011;27286;47.870;19.006;2022-12-05T01:40:39;22.73;;;15.90;;
41572;SDS011;27286;47.870;19.006;2022-12-05T01:43:05;21.35;;;16.85;;
41572;SDS011;27286;47.870;19.006;2022-12-05T01:45:40;21.98;;;16.95;;
41572;SDS011;27286;47.870;19.006;2022-12-05T01:48:09;23.35;;;16.15;;
41572;SDS011;27286;47.870;19.006;2022-12-05T01:50:39;25.40;;;16.80;;
41572;SDS011;27286;47.870;19.006;2022-12-05T01:53:05;19.80;;;15.52;;
41572;SDS011;27286;47.870;19.006;2022-12-05T01:55:30;18.55;;;14.35;;
41572;SDS011;27286;47.870;19.006;2022-12-05T01:57:58;20.48;;;15.02;;
41572;SDS011;27286;47.870;19.006;2022-12-05T02:00:25;19.40;;;14.23;;
41572;SDS011;27286;47.870;19.006;2022-12-05T02:03:02;18.42;;;14.25;;
41572;SDS011;27286;47.870;19.006;2022-12-05T02:05:32;19.65;;;14.43;;
41572;SDS011;27286;47.870;19.006;2022-12-05T02:08:00;22.45;;;16.20;;
41572;SDS011;27286;47.870;19.006;2022-12-05T02:10:28;21.05;;;14.73;;
41572;SDS011;27286;47.870;19.006;2022-12-05T02:13:00;17.45;;;13.45;;
41572;SDS011;27286;47.870;19.006;2022-12-05T02:15:46;18.95;;;15.30;;
41572;SDS011;27286;47.870;19.006;2022-12-05T02:35:06;17.30;;;13.38;;
41572;SDS011;27286;47.870;19.006;2022-12-05T02:43:42;16.67;;;12.88;;
41572;SDS011;27286;47.870;19.006;2022-12-05T02:46:11;17.52;;;12.77;;
41572;SDS011;27286;47.870;19.006;2022-12-05T02:48:41;18.58;;;13.73;;
41572;SDS011;27286;47.870;19.006;2022-12-05T02:51:09;21.30;;;13.52;;
41572;SDS011;27286;47.870;19.006;2022-12-05T02:53:39;18.80;;;13.05;;
41572;SDS011;27286;47.870;19.006;2022-12-05T02:56:07;18.02;;;12.65;;
41572;SDS011;27286;47.870;19.006;2022-12-05T02:58:35;17.25;;;12.50;;
41572;SDS011;27286;47.870;19.006;2022-12-05T03:01:06;17.63;;;13.23;;
41572;SDS011;27286;47.870;19.006;2022-12-05T03:03:31;18.60;;;13.18;;
41572;SDS011;27286;47.870;19.006;2022-12-05T03:06:10;17.17;;;14.00;;
41572;SDS011;27286;47.870;19.006;2022-12-05T03:08:41;19.10;;;14.23;;
41572;SDS011;27286;47.870;19.006;2022-12-05T03:11:12;19.00;;;13.63;;
41572;SDS011;27286;47.870;19.006;2022-12-05T03:13:57;17.38;;;13.55;;
41572;SDS011;27286;47.870;19.006;2022-12-05T03:16:28;18.70;;;14.18;;
41572;SDS011;27286;47.870;19.006;2022-12-05T03:18:59;18.52;;;13.00;;
41572;SDS011;27286;47.870;19.006;2022-12-05T03:24:05;18.63;;;13.35;;
41572;SDS011;27286;47.870;19.006;2022-12-05T03:31:44;16.13;;;13.10;;
41572;SDS011;27286;47.870;19.006;2022-12-05T03:34:12;16.15;;;12.60;;
41572;SDS011;27286;47.870;19.006;2022-12-05T03:36:43;18.52;;;13.23;;
41572;SDS011;27286;47.870;19.006;2022-12-05T03:39:28;20.45;;;13.15;;
41572;SDS011;27286;47.870;19.006;2022-12-05T03:42:01;16.45;;;11.27;;
41572;SDS011;27286;47.870;19.006;2022-12-05T03:44:33;14.95;;;11.02;;
41572;SDS011;27286;47.870;19.006;2022-12-05T03:47:21;14.95;;;11.30;;
41572;SDS011;27286;47.870;19.006;2022-12-05T03:49:54;16.00;;;11.45;;
41572;SDS011;27286;47.870;19.006;2022-12-05T03:55:11;16.10;;;11.00;;
41572;SDS011;27286;47.870;19.006;2022-12-05T03:57:42;14.95;;;11.88;;
41572;SDS011;27286;47.870;19.006;2022-12-05T04:00:18;16.45;;;12.07;;
41572;SDS011;27286;47.870;19.006;2022-12-05T04:02:48;17.45;;;11.43;;
41572;SDS011;27286;47.870;19.006;2022-12-05T04:08:15;16.35;;;11.93;;
41572;SDS011;27286;47.870;19.006;2022-12-05T04:10:43;14.45;;;11.10;;
41572;SDS011;27286;47.870;19.006;2022-12-05T04:16:01;15.13;;;11.75;;
41572;SDS011;27286;47.870;19.006;2022-12-05T04:22:24;13.90;;;10.50;;
41572;SDS011;27286;47.870;19.006;2022-12-05T04:24:50;16.40;;;11.43;;
41572;SDS011;27286;47.870;19.006;2022-12-05T04:27:47;17.80;;;12.10;;
41572;SDS011;27286;47.870;19.006;2022-12-05T04:30:19;16.65;;;12.20;;
41572;SDS011;27286;47.870;19.006;2022-12-05T04:33:04;14.95;;;11.35;;
41572;SDS011;27286;47.870;19.006;2022-12-05T04:35:36;16.42;;;12.18;;
41572;SDS011;27286;47.870;19.006;2022-12-05T04:38:10;17.88;;;11.82;;
41572;SDS011;27286;47.870;19.006;2022-12-05T04:40:43;17.08;;;12.02;;
41572;SDS011;27286;47.870;19.006;2022-12-05T04:43:16;19.52;;;12.90;;
41572;SDS011;27286;47.870;19.006;2022-12-05T04:45:44;18.80;;;13.10;;
41572;SDS011;27286;47.870;19.006;2022-12-05T04:48:13;20.02;;;12.38;;
41572;SDS011;27286;47.870;19.006;2022-12-05T04:50:40;17.35;;;13.27;;
41572;SDS011;27286;47.870;19.006;2022-12-05T04:53:07;21.13;;;14.70;;
41572;SDS011;27286;47.870;19.006;2022-12-05T04:55:34;20.38;;;14.43;;
41572;SDS011;27286;47.870;19.006;2022-12-05T04:58:07;19.63;;;14.23;;
41572;SDS011;27286;47.870;19.006;2022-12-05T05:06:08;18.15;;;12.40;;
41572;SDS011;27286;47.870;19.006;2022-12-05T05:08:35;18.55;;;13.55;;
41572;SDS011;27286;47.870;19.006;2022-12-05T05:13:37;20.02;;;13.45;;
41572;SDS011;27286;47.870;19.006;2022-12-05T05:16:03;17.98;;;12.52;;
41572;SDS011;27286;47.870;19.006;2022-12-05T05:18:29;17.65;;;12.73;;
41572;SDS011;27286;47.870;19.006;2022-12-05T05:20:55;17.33;;;12.82;;
41572;SDS011;27286;47.870;19.006;2022-12-05T05:23:20;18.17;;;12.55;;
41572;SDS011;27286;47.870;19.006;2022-12-05T05:25:50;21.83;;;14.02;;
41572;SDS011;27286;47.870;19.006;2022-12-05T05:28:18;19.63;;;14.05;;
41572;SDS011;27286;47.870;19.006;2022-12-05T05:30:43;19.50;;;12.32;;
41572;SDS011;27286;47.870;19.006;2022-12-05T05:33:09;18.05;;;12.73;;
41572;SDS011;27286;47.870;19.006;2022-12-05T05:35:35;19.77;;;13.88;;
41572;SDS011;27286;47.870;19.006;2022-12-05T05:38:01;20.50;;;14.05;;
41572;SDS011;27286;47.870;19.006;2022-12-05T05:40:26;17.50;;;12.88;;
41572;SDS011;27286;47.870;19.006;2022-12-05T05:42:51;18.63;;;12.93;;
41572;SDS011;27286;47.870;19.006;2022-12-05T05:45:17;20.35;;;14.02;;
41572;SDS011;27286;47.870;19.006;2022-12-05T05:47:42;20.25;;;14.07;;
41572;SDS011;27286;47.870;19.006;2022-12-05T05:50:08;19.35;;;13.15;;
41572;SDS011;27286;47.870;19.006;2022-12-05T05:52:35;17.83;;;12.30;;
41572;SDS011;27286;47.870;19.006;2022-12-05T05:55:02;24.90;;;14.38;;
41572;SDS011;27286;47.870;19.006;2022-12-05T05:57:29;20.20;;;14.05;;
41572;SDS011;27286;47.870;19.006;2022-12-05T05:59:55;17.35;;;12.15;;
41572;SDS011;27286;47.870;19.006;2022-12-05T06:02:21;20.08;;;13.32;;
41572;SDS011;27286;47.870;19.006;2022-12-05T06:04:46;18.20;;;12.75;;
41572;SDS011;27286;47.870;19.006;2022-12-05T06:07:12;18.77;;;13.52;;
41572;SDS011;27286;47.870;19.006;2022-12-05T06:09:37;18.60;;;12.77;;
41572;SDS011;27286;47.870;19.006;2022-12-05T06:12:02;21.63;;;12.73;;
41572;SDS011;27286;47.870;19.006;2022-12-05T06:14:28;18.35;;;12.90;;
41572;SDS011;27286;47.870;19.006;2022-12-05T06:16:53;26.20;;;13.75;;
41572;SDS011;27286;47.870;19.006;2022-12-05T06:19:19;20.17;;;13.40;;
41572;SDS011;27286;47.870;19.006;2022-12-05T06:21:44;17.52;;;12.05;;
41572;SDS011;27286;47.870;19.006;2022-12-05T06:24:12;16.60;;;11.85;;
41572;SDS011;27286;47.870;19.006;2022-12-05T06:26:37;20.58;;;11.82;;
41572;SDS011;27286;47.870;19.006;2022-12-05T06:29:03;17.10;;;11.45;;
41572;SDS011;27286;47.870;19.006;2022-12-05T06:31:28;17.10;;;12.48;;
41572;SDS011;27286;47.870;19.006;2022-12-05T06:33:58;19.55;;;12.68;;
41572;SDS011;27286;47.870;19.006;2022-12-05T06:36:25;18.98;;;12.80;;
41572;SDS011;27286;47.870;19.006;2022-12-05T06:38:51;17.77;;;12.55;;
41572;SDS011;27286;47.870;19.006;2022-12-05T06:41:17;20.30;;;12.85;;
41572;SDS011;27286;47.870;19.006;2022-12-05T06:43:44;17.23;;;11.23;;
41572;SDS011;27286;47.870;19.006;2022-12-05T06:46:10;22.27;;;14.80;;
41572;SDS011;27286;47.870;19.006;2022-12-05T06:48:36;18.38;;;12.70;;
41572;SDS011;27286;47.870;19.006;2022-12-05T06:51:02;17.13;;;12.23;;
41572;SDS011;27286;47.870;19.006;2022-12-05T06:53:28;18.70;;;10.63;;
41572;SDS011;27286;47.870;19.006;2022-12-05T06:55:54;16.17;;;11.27;;
41572;SDS011;27286;47.870;19.006;2022-12-05T06:58:24;15.93;;;10.30;;
41572;SDS011;27286;47.870;19.006;2022-12-05T07:00:50;18.27;;;12.07;;
41572;SDS011;27286;47.870;19.006;2022-12-05T07:03:38;15.32;;;10.88;;
41572;SDS011;27286;47.870;19.006;2022-12-05T07:06:05;19.27;;;12.40;;
41572;SDS011;27286;47.870;19.006;2022-12-05T07:08:32;17.42;;;12.15;;
41572;SDS011;27286;47.870;19.006;2022-12-05T07:10:58;19.20;;;12.07;;
41572;SDS011;27286;47.870;19.006;2022-12-05T07:13:23;16.05;;;11.77;;
41572;SDS011;27286;47.870;19.006;2022-12-05T07:15:49;16.85;;;11.77;;
41572;SDS011;27286;47.870;19.006;2022-12-05T07:18:15;16.83;;;12.95;;
41572;SDS011;27286;47.870;19.006;2022-12-05T07:20:41;16.75;;;13.05;;
41572;SDS011;27286;47.870;19.006;2022-12-05T07:23:07;21.20;;;13.82;;
41572;SDS011;27286;47.870;19.006;2022-12-05T07:25:37;20.60;;;12.60;;
41572;SDS011;27286;47.870;19.006;2022-12-05T07:28:04;20.70;;;11.88;;
41572;SDS011;27286;47.870;19.006;2022-12-05T07:30:30;19.95;;;12.70;;
41572;SDS011;27286;47.870;19.006;2022-12-05T07:32:55;20.67;;;14.07;;
41572;SDS011;27286;47.870;19.006;2022-12-05T07:35:20;24.83;;;12.90;;
41572;SDS011;27286;47.870;19.006;2022-12-05T07:37:46;19.40;;;12.55;;
41572;SDS011;27286;47.870;19.006;2022-12-05T07:40:11;21.73;;;13.60;;
41572;SDS011;27286;47.870;19.006;2022-12-05T07:42:37;20.27;;;12.68;;
41572;SDS011;27286;47.870;19.006;2022-12-05T07:45:02;20.23;;;13.55;;
41572;SDS011;27286;47.870;19.006;2022-12-05T07:47:28;19.25;;;13.27;;
41572;SDS011;27286;47.870;19.006;2022-12-05T07:49:54;18.75;;;12.50;;
41572;SDS011;27286;47.870;19.006;2022-12-05T07:52:20;20.50;;;12.85;;
41572;SDS011;27286;47.870;19.006;2022-12-05T07:54:45;19.15;;;12.93;;
41572;SDS011;27286;47.870;19.006;2022-12-05T07:57:10;17.73;;;12.32;;
41572;SDS011;27286;47.870;19.006;2022-12-05T07:59:36;22.08;;;13.00;;
41572;SDS011;27286;47.870;19.006;2022-12-05T08:02:01;21.35;;;13.35;;
41572;SDS011;27286;47.870;19.006;2022-12-05T08:04:27;19.70;;;12.85;;
41572;SDS011;27286;47.870;19.006;2022-12-05T08:06:52;20.33;;;13.02;;
41572;SDS011;27286;47.870;19.006;2022-12-05T08:09:17;21.17;;;12.38;;
41572;SDS011;27286;47.870;19.006;2022-12-05T08:11:43;20.20;;;13.23;;
41572;SDS011;27286;47.870;19.006;2022-12-05T08:14:08;20.35;;;12.70;;
41572;SDS011;27286;47.870;19.006;2022-12-05T08:16:34;21.50;;;12.60;;
41572;SDS011;27286;47.870;19.006;2022-12-05T08:19:01;18.25;;;12.07;;
41572;SDS011;27286;47.870;19.006;2022-12-05T08:21:31;20.13;;;12.60;;
41572;SDS011;27286;47.870;19.006;2022-12-05T08:23:58;20.70;;;13.38;;
41572;SDS011;27286;47.870;19.006;2022-12-05T08:26:25;21.05;;;13.95;;
41572;SDS011;27286;47.870;19.006;2022-12-05T08:28:56;19.60;;;13.75;;
41572;SDS011;27286;47.870;19.006;2022-12-05T08:31:31;22.13;;;13.88;;
41572;SDS011;27286;47.870;19.006;2022-12-05T08:33:58;17.02;;;12.48;;
41572;SDS011;27286;47.870;19.006;2022-12-05T08:36:25;19.70;;;12.18;;
41572;SDS011;27286;47.870;19.006;2022-12-05T08:38:56;22.50;;;13.95;;
41572;SDS011;27286;47.870;19.006;2022-12-05T08:41:23;24.90;;;15.77;;
41572;SDS011;27286;47.870;19.006;2022-12-05T08:43:55;20.35;;;13.50;;
41572;SDS011;27286;47.870;19.006;2022-12-05T08:46:22;20.15;;;13.60;;
41572;SDS011;27286;47.870;19.006;2022-12-05T08:48:47;22.95;;;14.60;;
41572;SDS011;27286;47.870;19.006;2022-12-05T08:51:12;21.92;;;13.95;;
41572;SDS011;27286;47.870;19.006;2022-12-05T08:53:38;29.00;;;15.30;;
41572;SDS011;27286;47.870;19.006;2022-12-05T08:56:05;27.40;;;15.90;;
41572;SDS011;27286;47.870;19.006;2022-12-05T08:58:32;20.63;;;13.43;;
41572;SDS011;27286;47.870;19.006;2022-12-05T09:01:10;21.83;;;14.43;;
41572;SDS011;27286;47.870;19.006;2022-12-05T09:03:37;22.92;;;14.20;;
41572;SDS011;27286;47.870;19.006;2022-12-05T09:08:31;24.17;;;14.98;;
41572;SDS011;27286;47.870;19.006;2022-12-05T09:10:57;19.88;;;14.82;;
41572;SDS011;27286;47.870;19.006;2022-12-05T09:13:22;22.35;;;14.55;;
41572;SDS011;27286;47.870;19.006;2022-12-05T09:15:48;18.85;;;13.30;;
41572;SDS011;27286;47.870;19.006;2022-12-05T09:18:13;21.10;;;14.70;;
41572;SDS011;27286;47.870;19.006;2022-12-05T09:20:39;19.85;;;13.13;;
41572;SDS011;27286;47.870;19.006;2022-12-05T09:23:05;24.75;;;14.02;;
41572;SDS011;27286;47.870;19.006;2022-12-05T09:25:30;21.08;;;14.38;;
41572;SDS011;27286;47.870;19.006;2022-12-05T09:27:56;20.13;;;13.98;;
41572;SDS011;27286;47.870;19.006;2022-12-05T09:30:21;21.52;;;14.88;;
41572;SDS011;27286;47.870;19.006;2022-12-05T09:32:46;21.45;;;14.02;;
41572;SDS011;27286;47.870;19.006;2022-12-05T09:35:12;22.05;;;13.13;;
41572;SDS011;27286;47.870;19.006;2022-12-05T09:37:37;18.80;;;13.90;;
41572;SDS011;27286;47.870;19.006;2022-12-05T09:40:03;20.33;;;13.88;;
41572;SDS011;27286;47.870;19.006;2022-12-05T09:47:31;20.90;;;13.02;;
41572;SDS011;27286;47.870;19.006;2022-12-05T09:55:27;22.40;;;15.40;;
41572;SDS011;27286;47.870;19.006;2022-12-05T09:58:01;20.30;;;14.45;;
41572;SDS011;27286;47.870;19.006;2022-12-05T10:00:29;18.35;;;14.00;;
41572;SDS011;27286;47.870;19.006;2022-12-05T10:11:00;21.70;;;13.63;;
41572;SDS011;27286;47.870;19.006;2022-12-05T10:16:03;21.02;;;14.60;;
41572;SDS011;27286;47.870;19.006;2022-12-05T10:18:51;21.63;;;15.00;;
41572;SDS011;27286;47.870;19.006;2022-12-05T10:21:29;18.65;;;14.07;;
41572;SDS011;27286;47.870;19.006;2022-12-05T10:24:22;18.33;;;13.90;;
41572;SDS011;27286;47.870;19.006;2022-12-05T10:27:05;20.17;;;14.98;;
41572;SDS011;27286;47.870;19.006;2022-12-05T10:29:34;19.60;;;14.43;;
41572;SDS011;27286;47.870;19.006;2022-12-05T10:32:06;18.58;;;13.25;;
41572;SDS011;27286;47.870;19.006;2022-12-05T10:35:01;19.48;;;13.90;;
41572;SDS011;27286;47.870;19.006;2022-12-05T10:37:38;19.15;;;14.93;;
41572;SDS011;27286;47.870;19.006;2022-12-05T10:40:10;22.52;;;14.85;;
41572;SDS011;27286;47.870;19.006;2022-12-05T10:42:36;18.75;;;14.02;;
41572;SDS011;27286;47.870;19.006;2022-12-05T10:45:03;22.33;;;14.88;;
41572;SDS011;27286;47.870;19.006;2022-12-05T10:47:32;20.95;;;14.90;;
41572;SDS011;27286;47.870;19.006;2022-12-05T10:50:01;19.33;;;14.25;;
41572;SDS011;27286;47.870;19.006;2022-12-05T10:52:30;20.38;;;15.07;;
41572;SDS011;27286;47.870;19.006;2022-12-05T10:54:58;21.55;;;15.73;;
41572;SDS011;27286;47.870;19.006;2022-12-05T10:57:27;23.17;;;16.25;;
41572;SDS011;27286;47.870;19.006;2022-12-05T10:59:56;22.38;;;14.77;;
41572;SDS011;27286;47.870;19.006;2022-12-05T11:02:32;21.50;;;14.07;;
41572;SDS011;27286;47.870;19.006;2022-12-05T11:04:58;21.15;;;14.45;;
41572;SDS011;27286;47.870;19.006;2022-12-05T11:09:55;22.52;;;15.35;;
41572;SDS011;27286;47.870;19.006;2022-12-05T11:12:23;19.67;;;14.13;;
41572;SDS011;27286;47.870;19.006;2022-12-05T11:14:59;18.50;;;14.02;;
41572;SDS011;27286;47.870;19.006;2022-12-05T11:17:35;20.65;;;14.00;;
41572;SDS011;27286;47.870;19.006;2022-12-05T11:20:31;17.15;;;13.45;;
41572;SDS011;27286;47.870;19.006;2022-12-05T11:22:49;18.92;;;13.32;;
41572;SDS011;27286;47.870;19.006;2022-12-05T11:25:23;18.27;;;14.48;;
41572;SDS011;27286;47.870;19.006;2022-12-05T11:27:52;23.58;;;14.02;;
41572;SDS011;27286;47.870;19.006;2022-12-05T11:30:20;19.95;;;13.98;;
41572;SDS011;27286;47.870;19.006;2022-12-05T11:32:46;20.65;;;14.07;;
41572;SDS011;27286;47.870;19.006;2022-12-05T11:38:02;18.85;;;13.95;;
41572;SDS011;27286;47.870;19.006;2022-12-05T11:40:32;22.40;;;14.40;;
41572;SDS011;27286;47.870;19.006;2022-12-05T11:49:18;21.05;;;14.55;;
41572;SDS011;27286;47.870;19.006;2022-12-05T11:54:10;19.55;;;13.77;;
41572;SDS011;27286;47.870;19.006;2022-12-05T11:56:45;20.77;;;14.57;;
41572;SDS011;27286;47.870;19.006;2022-12-05T12:02:12;23.63;;;15.02;;
41572;SDS011;27286;47.870;19.006;2022-12-05T12:07:37;18.40;;;12.57;;
41572;SDS011;27286;47.870;19.006;2022-12-05T12:13:11;23.17;;;14.23;;
41572;SDS011;27286;47.870;19.006;2022-12-05T12:21:15;28.08;;;16.13;;
41572;SDS011;27286;47.870;19.006;2022-12-05T12:24:01;21.20;;;15.68;;
41572;SDS011;27286;47.870;19.006;2022-12-05T12:29:23;21.08;;;16.08;;
41572;SDS011;27286;47.870;19.006;2022-12-05T12:48:52;25.88;;;17.55;;
41572;SDS011;27286;47.870;19.006;2022-12-05T12:51:22;24.48;;;17.27;;
41572;SDS011;27286;47.870;19.006;2022-12-05T12:53:54;24.30;;;17.58;;
41572;SDS011;27286;47.870;19.006;2022-12-05T13:01:38;22.73;;;17.05;;
41572;SDS011;27286;47.870;19.006;2022-12-05T13:04:06;22.75;;;16.48;;
41572;SDS011;27286;47.870;19.006;2022-12-05T13:11:58;24.20;;;17.95;;
41572;SDS011;27286;47.870;19.006;2022-12-05T13:14:29;23.38;;;17.98;;
41572;SDS011;27286;47.870;19.006;2022-12-05T13:16:57;22.42;;;16.88;;
41572;SDS011;27286;47.870;19.006;2022-12-05T13:19:30;23.75;;;17.48;;
41572;SDS011;27286;47.870;19.006;2022-12-05T13:22:06;26.90;;;19.52;;
41572;SDS011;27286;47.870;19.006;2022-12-05T13:24:33;24.38;;;17.30;;
41572;SDS011;27286;47.870;19.006;2022-12-05T13:27:00;22.40;;;17.00;;
41572;SDS011;27286;47.870;19.006;2022-12-05T13:29:32;25.67;;;17.05;;
41572;SDS011;27286;47.870;19.006;2022-12-05T13:32:06;20.45;;;16.83;;
41572;SDS011;27286;47.870;19.006;2022-12-05T13:34:49;22.58;;;17.50;;
41572;SDS011;27286;47.870;19.006;2022-12-05T13:40:19;25.58;;;17.73;;
41572;SDS011;27286;47.870;19.006;2022-12-05T13:43:04;22.60;;;17.90;;
41572;SDS011;27286;47.870;19.006;2022-12-05T13:45:31;26.55;;;19.33;;
41572;SDS011;27286;47.870;19.006;2022-12-05T13:50:44;23.92;;;18.67;;
41572;SDS011;27286;47.870;19.006;2022-12-05T13:58:56;20.65;;;16.67;;
41572;SDS011;27286;47.870;19.006;2022-12-05T14:09:03;22.52;;;16.90;;
41572;SDS011;27286;47.870;19.006;2022-12-05T14:12:16;17.27;;;15.38;;
41572;SDS011;27286;47.870;19.006;2022-12-05T14:17:20;18.65;;;15.93;;
41572;SDS011;27286;47.870;19.006;2022-12-05T14:20:05;19.17;;;14.95;;
41572;SDS011;27286;47.870;19.006;2022-12-05T14:25:46;17.40;;;15.52;;
41572;SDS011;27286;47.870;19.006;2022-12-05T14:28:28;19.85;;;15.95;;
41572;SDS011;27286;47.870;19.006;2022-12-05T14:31:17;18.37;;;16.40;;
41572;SDS011;27286;47.870;19.006;2022-12-05T14:33:45;17.70;;;15.43;;
41572;SDS011;27286;47.870;19.006;2022-12-05T14:36:35;20.73;;;16.40;;
41572;SDS011;27286;47.870;19.006;2022-12-05T14:39:18;23.25;;;16.67;;
41572;SDS011;27286;47.870;19.006;2022-12-05T14:41:45;18.60;;;16.55;;
41572;SDS011;27286;47.870;19.006;2022-12-05T14:44:17;19.42;;;16.38;;
41572;SDS011;27286;47.870;19.006;2022-12-05T14:46:44;22.85;;;15.90;;
41572;SDS011;27286;47.870;19.006;2022-12-05T14:52:10;22.25;;;16.67;;
41572;SDS011;27286;47.870;19.006;2022-12-05T14:54:36;25.17;;;16.10;;
41572;SDS011;27286;47.870;19.006;2022-12-05T14:57:08;19.40;;;14.82;;
41572;SDS011;27286;47.870;19.006;2022-12-05T15:02:30;20.33;;;15.27;;
41572;SDS011;27286;47.870;19.006;2022-12-05T15:05:05;29.05;;;17.15;;
41572;SDS011;27286;47.870;19.006;2022-12-05T15:07:38;22.05;;;16.15;;
41572;SDS011;27286;47.870;19.006;2022-12-05T15:10:23;22.25;;;17.10;;
41572;SDS011;27286;47.870;19.006;2022-12-05T15:12:56;22.80;;;17.50;;
41572;SDS011;27286;47.870;19.006;2022-12-05T15:15:34;25.05;;;16.90;;
41572;SDS011;27286;47.870;19.006;2022-12-05T15:23:47;22.95;;;17.33;;
41572;SDS011;27286;47.870;19.006;2022-12-05T15:26:23;22.27;;;17.55;;
41572;SDS011;27286;47.870;19.006;2022-12-05T15:29:06;23.92;;;19.40;;
41572;SDS011;27286;47.870;19.006;2022-12-05T15:31:35;24.13;;;19.00;;
41572;SDS011;27286;47.870;19.006;2022-12-05T15:34:12;26.75;;;20.05;;
41572;SDS011;27286;47.870;19.006;2022-12-05T15:36:44;25.55;;;19.05;;
41572;SDS011;27286;47.870;19.006;2022-12-05T15:39:22;23.40;;;17.42;;
41572;SDS011;27286;47.870;19.006;2022-12-05T15:41:50;25.15;;;19.40;;
41572;SDS011;27286;47.870;19.006;2022-12-05T15:44:17;26.67;;;19.52;;
41572;SDS011;27286;47.870;19.006;2022-12-05T15:46:44;22.80;;;18.08;;
41572;SDS011;27286;47.870;19.006;2022-12-05T15:49:16;24.55;;;18.63;;
41572;SDS011;27286;47.870;19.006;2022-12-05T15:51:47;23.15;;;17.42;;
41572;SDS011;27286;47.870;19.006;2022-12-05T15:54:17;22.10;;;16.95;;
41572;SDS011;27286;47.870;19.006;2022-12-05T15:56:51;23.83;;;17.80;;
41572;SDS011;27286;47.870;19.006;2022-12-05T15:59:25;25.60;;;18.63;;
41572;SDS011;27286;47.870;19.006;2022-12-05T16:02:02;29.23;;;19.27;;
41572;SDS011;27286;47.870;19.006;2022-12-05T16:04:42;23.33;;;18.42;;
41572;SDS011;27286;47.870;19.006;2022-12-05T16:07:14;28.08;;;19.33;;
41572;SDS011;27286;47.870;19.006;2022-12-05T16:09:40;25.13;;;20.58;;
41572;SDS011;27286;47.870;19.006;2022-12-05T16:12:15;31.20;;;20.75;;
41572;SDS011;27286;47.870;19.006;2022-12-05T16:14:55;30.42;;;21.63;;
41572;SDS011;27286;47.870;19.006;2022-12-05T16:17:25;30.58;;;21.27;;
41572;SDS011;27286;47.870;19.006;2022-12-05T16:20:08;25.20;;;20.33;;
41572;SDS011;27286;47.870;19.006;2022-12-05T16:25:11;30.63;;;21.45;;
41572;SDS011;27286;47.870;19.006;2022-12-05T16:27:40;30.00;;;21.77;;
41572;SDS011;27286;47.870;19.006;2022-12-05T16:32:36;29.40;;;22.15;;
41572;SDS011;27286;47.870;19.006;2022-12-05T16:35:03;37.55;;;22.95;;
41572;SDS011;27286;47.870;19.006;2022-12-05T16:40:52;28.38;;;22.75;;
41572;SDS011;27286;47.870;19.006;2022-12-05T16:45:47;30.30;;;22.23;;
41572;SDS011;27286;47.870;19.006;2022-12-05T16:50:41;27.58;;;21.48;;
41572;SDS011;27286;47.870;19.006;2022-12-05T16:55:32;28.35;;;20.63;;
41572;SDS011;27286;47.870;19.006;2022-12-05T16:58:00;27.95;;;21.92;;
41572;SDS011;27286;47.870;19.006;2022-12-05T17:00:26;24.63;;;20.35;;
41572;SDS011;27286;47.870;19.006;2022-12-05T17:02:51;31.00;;;21.52;;
41572;SDS011;27286;47.870;19.006;2022-12-05T17:05:17;29.90;;;22.20;;
41572;SDS011;27286;47.870;19.006;2022-12-05T17:07:42;27.30;;;21.25;;
41572;SDS011;27286;47.870;19.006;2022-12-05T17:10:08;26.35;;;21.05;;
41572;SDS011;27286;47.870;19.006;2022-12-05T17:12:33;24.27;;;20.70;;
41572;SDS011;27286;47.870;19.006;2022-12-05T17:14:59;31.45;;;21.85;;
41572;SDS011;27286;47.870;19.006;2022-12-05T17:17:24;25.67;;;21.38;;
41572;SDS011;27286;47.870;19.006;2022-12-05T17:19:50;30.63;;;23.13;;
41572;SDS011;27286;47.870;19.006;2022-12-05T17:22:15;51.17;;;35.25;;
41572;SDS011;27286;47.870;19.006;2022-12-05T17:24:41;27.58;;;22.10;;
41572;SDS011;27286;47.870;19.006;2022-12-05T17:27:09;26.65;;;21.58;;